createdAt,value
2023-03-16T00:00:53.106Z,82.40
2023-03-16T00:03:20.707Z,82.50
2023-03-16T00:05:49.270Z,82.60
2023-03-16T00:08:17.787Z,82.60
2023-03-16T00:10:47.405Z,82.60
2023-03-16T00:13:18.865Z,82.60
2023-03-16T00:16:01.094Z,82.60
2023-03-16T00:18:43.650Z,82.70
2023-03-16T00:21:12.747Z,82.70
2023-03-16T00:23:39.985Z,82.80
2023-03-16T00:26:09.220Z,82.80
2023-03-16T00:28:36.835Z,82.70
2023-03-16T00:31:08.982Z,82.80
2023-03-16T00:33:36.096Z,82.80
2023-03-16T00:36:09.383Z,82.90
2023-03-16T00:38:38.660Z,82.90
2023-03-16T00:41:08.162Z,83.30
2023-03-16T00:43:41.087Z,83.00
2023-03-16T00:46:13.346Z,83.00
2023-03-16T00:48:44.752Z,82.90
2023-03-16T00:51:15.372Z,83.00
2023-03-16T00:53:46.815Z,83.00
2023-03-16T00:56:14.473Z,83.00
2023-03-16T00:58:45.486Z,83.00
2023-03-16T01:01:15.597Z,83.00
2023-03-16T01:03:43.516Z,83.10
2023-03-16T01:06:13.662Z,83.10
2023-03-16T01:08:42.842Z,83.10
2023-03-16T01:11:13.616Z,83.80
2023-03-16T01:13:40.656Z,83.30
2023-03-16T01:16:09.816Z,83.20
2023-03-16T01:18:37.212Z,83.20
2023-03-16T01:21:06.357Z,83.30
2023-03-16T01:23:35.138Z,83.30
2023-03-16T01:26:02.248Z,83.40
2023-03-16T01:28:31.906Z,83.40
2023-03-16T01:31:06.604Z,83.30
2023-03-16T01:33:35.463Z,83.20
2023-03-16T01:36:07.224Z,83.30
2023-03-16T01:38:42.903Z,83.30
2023-03-16T01:41:13.743Z,83.40
2023-03-16T01:43:41.932Z,83.50
2023-03-16T01:46:33.252Z,83.60
2023-03-16T01:49:06.628Z,83.60
2023-03-16T01:52:06.683Z,83.70
2023-03-16T01:54:37.758Z,83.70
2023-03-16T01:57:39.851Z,83.80
2023-03-16T02:00:18.657Z,83.70
2023-03-16T02:03:11.912Z,83.70
2023-03-16T02:06:00.002Z,83.80
2023-03-16T02:08:29.318Z,83.70
2023-03-16T02:10:57.169Z,83.80
2023-03-16T02:13:40.056Z,83.80
2023-03-16T02:16:08.982Z,83.80
2023-03-16T02:18:37.015Z,83.80
2023-03-16T02:21:18.005Z,83.90
2023-03-16T02:23:50.830Z,83.90
2023-03-16T02:26:39.966Z,84.00
2023-03-16T02:29:32.781Z,84.00
2023-03-16T02:32:02.692Z,84.10
2023-03-16T02:34:35.892Z,84.10
2023-03-16T02:37:09.505Z,84.20
2023-03-16T02:39:36.616Z,84.20
2023-03-16T02:42:05.068Z,84.30
2023-03-16T02:44:37.124Z,84.40
2023-03-16T02:47:15.467Z,84.40
2023-03-16T02:49:46.194Z,84.40
2023-03-16T02:52:13.576Z,84.50
2023-03-16T02:54:41.947Z,84.60
2023-03-16T02:57:10.844Z,84.60
2023-03-16T02:59:37.892Z,84.60
2023-03-16T03:02:05.101Z,84.60
2023-03-16T03:04:33.125Z,84.60
2023-03-16T03:07:04.846Z,84.60
2023-03-16T03:09:37.739Z,84.60
2023-03-16T03:12:05.089Z,84.60
2023-03-16T03:14:32.201Z,84.60
2023-03-16T03:17:04.657Z,84.60
2023-03-16T03:19:33.836Z,84.70
2023-03-16T03:22:09.194Z,84.60
2023-03-16T03:24:36.319Z,84.70
2023-03-16T03:27:05.868Z,84.60
2023-03-16T03:29:36.202Z,84.60
2023-03-16T03:32:07.612Z,84.60
2023-03-16T03:34:34.671Z,84.50
2023-03-16T03:37:01.779Z,84.60
2023-03-16T03:39:29.838Z,84.60
2023-03-16T03:41:56.850Z,84.60
2023-03-16T03:44:25.138Z,84.70
2023-03-16T03:46:52.657Z,84.70
2023-03-16T03:49:26.048Z,84.80
2023-03-16T03:51:53.202Z,84.90
2023-03-16T03:54:25.397Z,85.00
2023-03-16T03:57:00.723Z,85.10
2023-03-16T03:59:27.922Z,85.20
2023-03-16T04:02:39.191Z,85.20
2023-03-16T04:05:10.881Z,85.30
2023-03-16T04:07:38.938Z,85.30
2023-03-16T04:10:10.577Z,85.40
2023-03-16T04:12:43.200Z,85.40
2023-03-16T04:15:12.807Z,85.60
2023-03-16T04:17:49.870Z,85.60
2023-03-16T04:20:19.617Z,85.70
2023-03-16T04:22:47.893Z,85.70
2023-03-16T04:25:17.768Z,85.80
2023-03-16T04:27:49.201Z,86.00
2023-03-16T04:30:17.797Z,86.10
2023-03-16T04:32:49.524Z,86.20
2023-03-16T04:35:22.260Z,86.30
2023-03-16T04:37:53.692Z,86.50
2023-03-16T04:40:26.387Z,86.50
2023-03-16T04:43:04.841Z,86.60
2023-03-16T04:45:34.679Z,86.60
2023-03-16T04:48:01.776Z,86.70
2023-03-16T04:50:32.254Z,86.80
2023-03-16T04:53:00.446Z,86.90
2023-03-16T04:55:30.177Z,87.00
2023-03-16T04:57:58.325Z,87.00
2023-03-16T05:00:30.350Z,87.10
2023-03-16T05:03:04.571Z,87.20
2023-03-16T05:05:32.517Z,87.20
2023-03-16T05:08:05.241Z,87.20
2023-03-16T05:10:34.993Z,87.30
2023-03-16T05:13:02.918Z,87.30
2023-03-16T05:15:30.118Z,87.30
2023-03-16T05:18:06.686Z,87.30
2023-03-16T05:20:34.933Z,87.30
2023-03-16T05:23:03.942Z,87.30
2023-03-16T05:25:34.723Z,87.40
2023-03-16T05:28:05.628Z,87.40
2023-03-16T05:31:04.024Z,87.30
2023-03-16T05:33:38.453Z,87.30
2023-03-16T05:36:10.193Z,87.40
2023-03-16T05:38:39.627Z,87.40
2023-03-16T05:41:10.481Z,87.40
2023-03-16T05:43:49.026Z,87.50
2023-03-16T05:46:18.971Z,87.50
2023-03-16T05:48:49.010Z,87.50
2023-03-16T05:51:18.557Z,87.50
2023-03-16T05:53:46.981Z,87.50
2023-03-16T05:56:28.057Z,87.60
2023-03-16T05:58:56.271Z,87.60
2023-03-16T06:01:24.830Z,87.60
2023-03-16T06:03:53.257Z,87.60
2023-03-16T06:06:24.748Z,87.60
2023-03-16T06:09:01.678Z,87.70
2023-03-16T06:11:29.773Z,87.70
2023-03-16T06:13:57.984Z,87.70
2023-03-16T06:16:25.644Z,87.70
2023-03-16T06:18:52.869Z,87.70
2023-03-16T06:21:20.374Z,87.70
2023-03-16T06:23:51.075Z,87.80
2023-03-16T06:26:19.745Z,87.80
2023-03-16T06:28:48.948Z,87.80
2023-03-16T06:31:16.543Z,87.90
2023-03-16T06:33:45.957Z,87.80
2023-03-16T06:36:13.776Z,87.90
2023-03-16T06:38:46.067Z,87.90
2023-03-16T06:41:24.142Z,88.00
2023-03-16T06:43:51.657Z,87.90
2023-03-16T06:46:18.875Z,88.00
2023-03-16T06:48:47.462Z,88.60
2023-03-16T06:51:16.786Z,87.90
2023-03-16T06:53:45.294Z,87.90
2023-03-16T06:56:12.631Z,87.90
2023-03-16T06:58:42.770Z,88.00
2023-03-16T07:01:09.970Z,88.10
2023-03-16T07:03:37.103Z,88.10
2023-03-16T07:06:18.671Z,88.10
2023-03-16T07:08:46.197Z,88.10
2023-03-16T07:11:14.992Z,88.20
2023-03-16T07:13:42.504Z,88.40
2023-03-16T07:16:10.701Z,88.40
2023-03-16T07:18:44.469Z,88.50
2023-03-16T07:21:14.480Z,88.60
2023-03-16T07:23:42.789Z,88.70
2023-03-16T07:26:12.147Z,88.70
2023-03-16T07:28:48.934Z,88.70
2023-03-16T07:31:16.763Z,88.60
2023-03-16T07:33:46.698Z,88.60
2023-03-16T07:36:20.696Z,88.60
2023-03-16T07:38:54.270Z,88.60
2023-03-16T07:41:21.770Z,88.60
2023-03-16T07:43:49.113Z,88.70
2023-03-16T07:46:16.424Z,88.90
2023-03-16T07:48:46.605Z,89.10
2023-03-16T07:51:14.461Z,89.20
2023-03-16T07:53:45.661Z,89.40
2023-03-16T07:56:24.788Z,89.50
2023-03-16T07:58:55.213Z,89.60
2023-03-16T08:01:23.848Z,89.60
2023-03-16T08:03:51.397Z,89.80
2023-03-16T08:06:21.637Z,89.80
2023-03-16T08:08:48.888Z,90.00
2023-03-16T08:11:24.219Z,90.00
2023-03-16T08:13:57.828Z,90.00
2023-03-16T08:16:32.007Z,90.00
2023-03-16T08:18:59.912Z,90.10
2023-03-16T08:21:31.246Z,90.10
2023-03-16T08:24:01.834Z,90.10
2023-03-16T08:26:29.687Z,90.10
2023-03-16T08:29:02.590Z,90.10
2023-03-16T08:31:35.445Z,90.10
2023-03-16T08:34:13.150Z,90.10
2023-03-16T08:36:44.380Z,90.10
2023-03-16T08:39:13.363Z,90.10
2023-03-16T08:41:44.088Z,90.00
2023-03-16T08:44:25.808Z,90.00
2023-03-16T08:46:53.076Z,90.00
2023-03-16T08:49:21.355Z,89.90
2023-03-16T08:51:57.206Z,89.80
2023-03-16T08:54:24.442Z,89.70
2023-03-16T08:56:51.813Z,89.60
2023-03-16T08:59:29.011Z,89.60
2023-03-16T09:01:57.081Z,89.60
2023-03-16T09:04:24.209Z,89.60
2023-03-16T09:07:05.980Z,89.70
2023-03-16T09:09:35.699Z,89.70
2023-03-16T09:12:04.351Z,89.70
2023-03-16T09:14:31.468Z,89.70
2023-03-16T09:17:01.201Z,89.80
2023-03-16T09:19:34.805Z,89.80
2023-03-16T09:22:07.839Z,89.90
2023-03-16T09:24:34.979Z,89.90
2023-03-16T09:27:02.104Z,89.90
2023-03-16T09:29:29.582Z,89.80
2023-03-16T09:31:56.439Z,89.80
2023-03-16T09:36:50.605Z,89.70
2023-03-16T09:39:18.104Z,89.60
2023-03-16T09:42:05.078Z,89.60
2023-03-16T09:44:41.273Z,89.50
2023-03-16T09:47:11.146Z,89.50
2023-03-16T09:49:45.482Z,89.40
2023-03-16T09:52:41.864Z,89.40
2023-03-16T09:55:32.850Z,89.30
2023-03-16T09:58:01.324Z,89.30
2023-03-16T10:00:33.905Z,89.40
2023-03-16T10:03:21.634Z,89.40
2023-03-16T10:05:54.417Z,89.30
2023-03-16T10:08:24.683Z,89.30
2023-03-16T10:11:13.610Z,89.40
2023-03-16T10:13:49.058Z,89.40
2023-03-16T10:16:41.244Z,89.40
2023-03-16T10:19:14.837Z,89.20
2023-03-16T10:21:45.702Z,89.10
2023-03-16T10:24:48.566Z,89.00
2023-03-16T10:27:23.019Z,88.90
2023-03-16T10:29:50.276Z,88.70
2023-03-16T10:32:19.663Z,89.10
2023-03-16T10:35:00.846Z,88.20
2023-03-16T10:37:31.202Z,88.10
2023-03-16T10:40:01.427Z,87.90
2023-03-16T10:42:31.771Z,87.60
2023-03-16T10:45:03.236Z,87.40
2023-03-16T10:47:35.384Z,87.10
2023-03-16T10:50:20.993Z,87.00
2023-03-16T10:52:49.680Z,86.70
2023-03-16T10:55:28.988Z,86.60
2023-03-16T10:57:56.748Z,86.30
2023-03-16T11:00:31.143Z,86.20
2023-03-16T11:03:00.027Z,86.10
2023-03-16T11:05:32.330Z,86.20
2023-03-16T11:07:59.352Z,86.20
2023-03-16T11:10:36.223Z,86.10
2023-03-16T11:13:20.184Z,85.80
2023-03-16T11:15:59.990Z,85.50
2023-03-16T11:18:43.741Z,84.90
2023-03-16T11:21:28.204Z,84.90
2023-03-16T11:23:56.945Z,84.70
2023-03-16T11:26:39.516Z,84.70
2023-03-16T11:29:26.608Z,84.40
2023-03-16T11:32:30.219Z,84.50
2023-03-16T11:34:57.365Z,84.40
2023-03-16T11:37:33.916Z,84.40
2023-03-16T11:40:14.319Z,84.30
2023-03-16T11:43:02.841Z,84.30
2023-03-16T11:45:45.565Z,83.70
2023-03-16T11:48:23.072Z,83.80
2023-03-16T11:51:05.034Z,83.60
2023-03-16T11:53:38.524Z,83.60
2023-03-16T11:56:27.379Z,83.50
2023-03-16T11:58:57.231Z,83.50
2023-03-16T12:01:58.232Z,83.90
2023-03-16T12:04:37.185Z,83.00
2023-03-16T12:07:16.107Z,83.00
2023-03-16T12:10:13.920Z,82.90
2023-03-16T12:13:01.748Z,82.80
2023-03-16T12:15:48.224Z,82.60
2023-03-16T12:18:47.186Z,82.30
2023-03-16T12:21:21.586Z,82.30
2023-03-16T12:23:55.349Z,82.20
2023-03-16T12:26:26.511Z,82.00
2023-03-16T12:28:55.386Z,81.80
2023-03-16T12:31:36.000Z,81.60
2023-03-16T12:34:27.449Z,81.40
2023-03-16T12:37:36.713Z,81.00
2023-03-16T12:40:09.313Z,80.90
2023-03-16T12:42:42.545Z,81.00
2023-03-16T12:45:31.860Z,80.60
2023-03-16T12:48:25.006Z,81.10
2023-03-16T12:50:58.779Z,80.20
2023-03-16T12:53:46.040Z,80.40
2023-03-16T12:56:17.809Z,80.40
2023-03-16T12:58:50.341Z,80.50
2023-03-16T13:01:24.948Z,80.40
2023-03-16T13:04:00.978Z,80.10
2023-03-16T13:06:36.129Z,80.30
2023-03-16T13:09:07.258Z,80.20
2023-03-16T13:11:50.330Z,80.00
2023-03-16T13:14:41.841Z,79.90
2023-03-16T13:17:17.888Z,79.90
2023-03-16T13:19:57.734Z,79.80
2023-03-16T13:22:47.415Z,79.80
2023-03-16T13:25:42.067Z,79.60
2023-03-16T13:28:17.438Z,79.50
2023-03-16T13:30:49.329Z,79.10
2023-03-16T13:33:25.777Z,79.00
2023-03-16T13:35:56.049Z,79.00
2023-03-16T13:38:31.305Z,78.80
2023-03-16T13:41:03.515Z,78.70
2023-03-16T13:43:35.846Z,78.50
2023-03-16T13:46:13.636Z,78.30
2023-03-16T13:48:41.850Z,78.10
2023-03-16T13:51:23.791Z,78.30
2023-03-16T13:54:00.347Z,78.00
2023-03-16T13:56:29.507Z,78.10
2023-03-16T13:58:58.762Z,78.00
2023-03-16T14:01:29.400Z,77.90
2023-03-16T14:04:00.422Z,77.60
2023-03-16T14:06:30.591Z,77.20
2023-03-16T14:09:01.507Z,77.10
2023-03-16T14:11:31.976Z,76.90
2023-03-16T14:14:00.564Z,77.00
2023-03-16T14:16:32.317Z,77.00
2023-03-16T14:19:06.621Z,77.00
2023-03-16T14:21:34.713Z,77.20
2023-03-16T14:24:04.828Z,77.30
2023-03-16T14:26:43.797Z,77.20
2023-03-16T14:29:26.626Z,76.90
2023-03-16T14:31:54.670Z,76.90
2023-03-16T14:34:28.999Z,76.80
2023-03-16T14:37:13.968Z,76.70
2023-03-16T14:39:41.557Z,76.60
2023-03-16T14:42:22.415Z,76.60
2023-03-16T14:44:50.505Z,76.60
2023-03-16T14:47:24.162Z,76.80
2023-03-16T14:50:03.042Z,76.70
2023-03-16T14:52:32.886Z,76.90
2023-03-16T14:55:16.074Z,77.00
2023-03-16T14:57:46.436Z,77.00
2023-03-16T15:00:22.510Z,77.00
2023-03-16T15:03:05.118Z,77.00
2023-03-16T15:05:45.888Z,76.80
2023-03-16T15:08:17.559Z,76.90
2023-03-16T15:10:46.874Z,77.00
2023-03-16T15:13:39.337Z,77.00
2023-03-16T15:16:09.963Z,76.90
2023-03-16T15:18:38.204Z,76.80
2023-03-16T15:21:15.433Z,76.60
2023-03-16T15:23:43.868Z,77.10
2023-03-16T15:26:16.106Z,76.30
2023-03-16T15:28:45.171Z,76.30
2023-03-16T15:31:14.306Z,76.40
2023-03-16T15:33:42.237Z,76.10
2023-03-16T15:36:16.345Z,75.90
2023-03-16T15:38:49.385Z,75.70
2023-03-16T15:41:17.300Z,75.70
2023-03-16T15:43:48.619Z,75.70
2023-03-16T15:46:16.795Z,75.50
2023-03-16T15:48:44.633Z,75.50
2023-03-16T15:51:23.049Z,75.40
2023-03-16T15:53:53.700Z,75.30
2023-03-16T15:56:29.734Z,75.20
2023-03-16T15:59:02.524Z,75.20
2023-03-16T16:01:34.999Z,75.20
2023-03-16T16:04:03.459Z,75.20
2023-03-16T16:06:38.015Z,75.30
2023-03-16T16:09:05.457Z,75.20
2023-03-16T16:11:32.516Z,75.30
2023-03-16T16:13:59.826Z,75.40
2023-03-16T16:16:29.154Z,75.60
2023-03-16T16:18:56.998Z,75.40
2023-03-16T16:21:30.700Z,75.40
2023-03-16T16:23:57.921Z,75.20
2023-03-16T16:26:48.279Z,75.30
2023-03-16T16:29:19.716Z,75.30
2023-03-16T16:31:48.280Z,74.80
2023-03-16T16:34:18.135Z,74.80
2023-03-16T16:36:45.317Z,75.00
2023-03-16T16:39:12.702Z,75.00
2023-03-16T16:41:40.771Z,75.20
2023-03-16T16:44:18.288Z,75.30
2023-03-16T16:46:45.982Z,75.20
2023-03-16T16:49:25.326Z,75.30
2023-03-16T16:51:53.385Z,75.40
2023-03-16T16:54:23.599Z,75.60
2023-03-16T16:56:53.937Z,75.80
2023-03-16T16:59:24.992Z,75.90
2023-03-16T17:01:54.032Z,75.90
2023-03-16T17:04:24.983Z,75.90
2023-03-16T17:07:03.157Z,76.10
2023-03-16T17:09:30.754Z,76.10
2023-03-16T17:12:01.058Z,76.30
2023-03-16T17:14:32.292Z,76.50
2023-03-16T17:17:02.702Z,76.70
2023-03-16T17:19:30.130Z,76.80
2023-03-16T17:21:58.536Z,76.90
2023-03-16T17:24:26.017Z,77.00
2023-03-16T17:26:57.074Z,77.00
2023-03-16T17:29:32.074Z,77.20
2023-03-16T17:32:15.366Z,77.50
2023-03-16T17:34:46.958Z,77.70
2023-03-16T17:37:21.204Z,78.00
2023-03-16T17:39:49.188Z,78.20
2023-03-16T17:42:19.031Z,78.30
2023-03-16T17:44:49.783Z,78.40
2023-03-16T17:47:28.074Z,78.50
2023-03-16T17:49:57.142Z,78.60
2023-03-16T17:52:28.939Z,78.90
2023-03-16T17:54:58.014Z,79.10
2023-03-16T17:57:32.064Z,79.30
2023-03-16T18:00:17.630Z,79.50
2023-03-16T18:02:59.408Z,79.60
2023-03-16T18:16:41.608Z,80.40
2023-03-16T18:23:41.609Z,80.50
2023-03-16T18:26:09.345Z,80.70
2023-03-16T18:28:42.097Z,80.70
2023-03-16T18:31:42.064Z,80.80
2023-03-16T18:34:21.627Z,80.80
2023-03-16T18:36:48.900Z,80.90
2023-03-16T18:39:21.435Z,81.10
2023-03-16T18:41:48.625Z,81.20
2023-03-16T18:44:27.650Z,81.20
2023-03-16T18:47:01.251Z,81.20
2023-03-16T18:49:36.936Z,81.30
2023-03-16T18:52:14.692Z,81.40
2023-03-16T18:54:45.537Z,81.40
2023-03-16T18:57:28.042Z,81.60
2023-03-16T18:59:55.391Z,81.50
2023-03-16T19:02:48.584Z,81.60
2023-03-16T19:05:30.569Z,81.60
2023-03-16T19:07:57.982Z,81.70
2023-03-16T19:10:28.104Z,81.80
2023-03-16T19:12:55.988Z,81.80
2023-03-16T19:15:26.879Z,81.80
2023-03-16T19:17:55.206Z,81.90
2023-03-16T19:20:29.504Z,81.90
2023-03-16T19:23:11.821Z,81.90
2023-03-16T19:25:42.698Z,82.00
2023-03-16T19:28:34.222Z,82.10
2023-03-16T19:31:14.656Z,82.10
2023-03-16T19:33:44.732Z,82.20
2023-03-16T19:36:25.316Z,82.30
2023-03-16T19:38:52.984Z,82.40
2023-03-16T19:41:32.875Z,82.50
2023-03-16T19:44:14.085Z,82.50
2023-03-16T19:46:42.204Z,82.50
2023-03-16T19:49:20.171Z,82.60
2023-03-16T19:51:48.720Z,82.50
2023-03-16T19:54:27.812Z,82.50
2023-03-16T19:56:58.624Z,82.50
2023-03-16T19:59:31.443Z,82.60
2023-03-16T20:02:15.593Z,82.70
2023-03-16T20:04:48.028Z,82.80
2023-03-16T20:07:18.044Z,83.00
2023-03-16T20:09:50.492Z,83.10
2023-03-16T20:12:26.296Z,83.30
2023-03-16T20:23:50.659Z,83.50
2023-03-16T20:27:15.584Z,83.50
2023-03-16T20:35:48.365Z,83.70
2023-03-16T20:38:38.329Z,83.60
2023-03-16T20:41:36.767Z,83.60
2023-03-16T20:44:04.986Z,83.70
2023-03-16T20:46:33.499Z,83.70
2023-03-16T20:49:00.950Z,83.60
2023-03-16T20:51:32.406Z,83.60
2023-03-16T20:53:59.611Z,83.60
2023-03-16T21:06:43.881Z,83.50
2023-03-16T21:09:20.085Z,83.80
2023-03-16T21:11:48.139Z,84.00
2023-03-16T21:14:23.605Z,84.20
2023-03-16T21:16:52.497Z,84.30
2023-03-16T21:19:23.192Z,84.50
2023-03-16T21:21:55.705Z,84.60
2023-03-16T21:24:29.465Z,84.60
2023-03-16T21:26:59.165Z,84.80
2023-03-16T21:29:28.827Z,84.80
2023-03-16T21:31:56.085Z,84.80
2023-03-16T21:34:31.039Z,84.90
2023-03-16T21:36:59.397Z,85.10
2023-03-16T21:39:29.116Z,85.20
2023-03-16T21:41:56.325Z,85.30
2023-03-16T21:44:23.519Z,85.40
2023-03-16T21:46:51.017Z,85.50
2023-03-16T21:49:18.613Z,85.60
2023-03-16T21:51:48.880Z,85.50
2023-03-16T21:54:17.315Z,85.60
2023-03-16T21:56:48.145Z,85.60
2023-03-16T21:59:15.701Z,85.60
2023-03-16T22:02:00.326Z,85.70
2023-03-16T22:04:31.962Z,85.80
2023-03-16T22:07:01.584Z,85.90
2023-03-16T22:09:32.893Z,85.90
2023-03-16T22:12:02.868Z,85.90
2023-03-16T22:14:30.305Z,85.90
2023-03-16T22:17:00.094Z,85.80
2023-03-16T22:19:27.768Z,85.90
2023-03-16T22:21:56.924Z,86.00
2023-03-16T22:24:30.998Z,86.10
2023-03-16T22:27:01.604Z,86.10
2023-03-16T22:29:31.746Z,86.20
2023-03-16T22:32:08.656Z,86.20
2023-03-16T22:34:48.253Z,86.20
2023-03-16T22:37:33.588Z,86.20
2023-03-16T22:40:02.012Z,86.30
2023-03-16T22:42:33.670Z,86.20
2023-03-16T22:45:01.200Z,86.30
2023-03-16T22:47:33.816Z,86.30
2023-03-16T22:50:01.164Z,86.30
2023-03-16T22:52:35.241Z,86.40
2023-03-16T22:55:05.052Z,86.30
2023-03-16T22:57:32.950Z,86.40
2023-03-16T23:00:07.357Z,86.50
2023-03-16T23:02:34.665Z,86.60
2023-03-16T23:05:02.080Z,86.70
2023-03-16T23:07:32.296Z,86.80
2023-03-16T23:09:59.434Z,86.90
2023-03-16T23:12:29.239Z,86.80
2023-03-16T23:14:59.877Z,86.70
2023-03-16T23:17:32.661Z,86.70
2023-03-16T23:19:59.817Z,86.70
2023-03-16T23:22:29.620Z,86.60
2023-03-16T23:24:56.990Z,86.50
2023-03-16T23:27:39.580Z,86.40
2023-03-16T23:30:22.947Z,86.30
2023-03-16T23:32:54.353Z,86.30
2023-03-16T23:35:24.545Z,86.30
2023-03-16T23:37:52.541Z,86.10
2023-03-16T23:40:21.751Z,86.10
2023-03-16T23:42:50.050Z,86.10
2023-03-16T23:45:46.932Z,86.00
2023-03-16T23:48:19.412Z,86.00
2023-03-16T23:50:48.080Z,86.20
2023-03-16T23:53:28.511Z,86.30
2023-03-16T23:55:56.991Z,86.40
2023-03-16T23:58:27.104Z,86.40
